Terminal Aerodrome Forecast
Issued by NWS Quad Cities IA IL

Home | Current Version | Previous Version | Text Only | Print | Product List | Glossary On
Versions: 1 2 3 4 5 6 7 8 9 10 11 12 13 14 15 16 17
000
FTUS43 KDVN 271700
TAFMLI
TAF
KMLI 271739Z 2718/2818 02009KT P6SM OVC016
     FM280000 09005KT P6SM OVC015
     FM280600 14006KT P6SM OVC020
     FM281300 15012G18KT P6SM SCT025 BKN250=

USA.gov is the U.S. government's official web portal to all federal, state and local government web resources and services.